createdAt,value
2018-05-11T00:00:17.207Z,80.3
2018-05-11T00:01:17.158Z,80.54
2018-05-11T00:02:17.145Z,80.36
2018-05-11T00:03:17.186Z,80.71
2018-05-11T00:04:17.262Z,80.75
2018-05-11T00:05:17.197Z,80.48
2018-05-11T00:06:17.188Z,80.81
2018-05-11T00:07:17.176Z,80.94
2018-05-11T00:08:17.141Z,80.97
2018-05-11T00:09:17.119Z,80.91
2018-05-11T00:10:17.201Z,80.56
2018-05-11T00:11:17.159Z,81.16
2018-05-11T00:12:17.163Z,81.13
2018-05-11T00:13:17.176Z,81.27
2018-05-11T00:14:17.127Z,81.31
2018-05-11T00:15:17.130Z,81.04
2018-05-11T00:16:17.138Z,80.95
2018-05-11T00:17:17.147Z,81.64
2018-05-11T00:18:17.152Z,81.36
2018-05-11T00:19:17.162Z,81.61
2018-05-11T00:20:17.166Z,81.82
2018-05-11T00:21:17.141Z,82
2018-05-11T00:22:17.145Z,81.92
2018-05-11T00:23:17.177Z,81.86
2018-05-11T00:24:17.206Z,81.33
2018-05-11T00:25:17.166Z,81
2018-05-11T00:26:17.143Z,81.22
2018-05-11T00:27:17.639Z,80.86
2018-05-11T00:28:17.177Z,80.94
2018-05-11T00:29:17.141Z,81.86
2018-05-11T00:30:17.172Z,81.42
2018-05-11T00:31:17.164Z,81.26
2018-05-11T00:32:17.158Z,81.12
2018-05-11T00:33:17.146Z,81.15
2018-05-11T00:34:17.190Z,81.03
2018-05-11T00:35:17.163Z,80.9
2018-05-11T00:36:17.199Z,81.12
2018-05-11T00:37:17.586Z,80.93
2018-05-11T00:38:17.217Z,81.42
2018-05-11T00:39:17.161Z,81.37
2018-05-11T00:40:17.189Z,80.63
2018-05-11T00:41:17.205Z,80.72
2018-05-11T00:42:17.185Z,81.21
2018-05-11T00:43:17.181Z,81.12
2018-05-11T00:44:17.188Z,81.04
2018-05-11T00:45:17.201Z,80.95
2018-05-11T00:46:17.281Z,80.81
2018-05-11T00:47:17.476Z,80.88
2018-05-11T00:48:17.191Z,81.01
2018-05-11T00:49:17.172Z,81.19
2018-05-11T00:50:17.198Z,80.96
2018-05-11T00:51:17.170Z,81.07
2018-05-11T00:52:17.301Z,81.28
2018-05-11T00:53:17.190Z,81.22
2018-05-11T00:54:17.174Z,80.92
2018-05-11T00:55:17.227Z,80.92
2018-05-11T00:56:17.162Z,80.73
2018-05-11T00:57:17.178Z,80.54
2018-05-11T00:58:17.202Z,80.44
2018-05-11T00:59:17.191Z,80.58
2018-05-11T01:00:17.232Z,80.9
2018-05-11T01:01:17.181Z,81.05
2018-05-11T01:02:17.245Z,80.83
2018-05-11T01:03:17.236Z,80.74
2018-05-11T01:04:17.193Z,80.56
2018-05-11T01:05:17.216Z,80.58
2018-05-11T01:06:17.313Z,80.61
2018-05-11T01:07:17.385Z,80.94
2018-05-11T01:08:17.180Z,80.93
2018-05-11T01:09:17.279Z,81.18
2018-05-11T01:10:17.186Z,81.24
2018-05-11T01:11:17.220Z,81
2018-05-11T01:12:17.588Z,81.12
2018-05-11T01:13:17.176Z,81.06
2018-05-11T01:14:17.241Z,80.94
2018-05-11T01:15:17.231Z,80.73
2018-05-11T01:16:17.387Z,80.53
2018-05-11T01:17:17.201Z,80.44
2018-05-11T01:18:17.209Z,81.01
2018-05-11T01:19:17.198Z,80.84
2018-05-11T01:20:17.195Z,81.07
2018-05-11T01:21:17.223Z,80.99
2018-05-11T01:22:17.221Z,80.58
2018-05-11T01:23:17.227Z,80.56
2018-05-11T01:24:17.221Z,80.34
2018-05-11T01:25:17.192Z,80.25
2018-05-11T01:26:17.214Z,80.36
2018-05-11T01:27:17.616Z,80.36
2018-05-11T01:28:17.193Z,80.85
2018-05-11T01:29:17.195Z,80.62
2018-05-11T01:30:17.208Z,80.87
2018-05-11T01:31:17.187Z,80.98
2018-05-11T01:32:17.235Z,80.68
2018-05-11T01:33:17.209Z,80.39
2018-05-11T01:34:17.197Z,80.87
2018-05-11T01:35:17.225Z,80.42
2018-05-11T01:36:17.228Z,80.33
2018-05-11T01:37:17.219Z,80.47
2018-05-11T01:38:17.197Z,80.28
2018-05-11T01:39:17.198Z,80.34
2018-05-11T01:40:17.314Z,80.24
2018-05-11T01:41:17.202Z,80.41
2018-05-11T01:42:17.729Z,80.42
2018-05-11T01:43:17.264Z,80.43
2018-05-11T01:44:17.210Z,80.32
2018-05-11T01:45:17.196Z,80.02
2018-05-11T01:46:17.208Z,80.02
2018-05-11T01:47:17.204Z,80.18
2018-05-11T01:48:17.347Z,80.49
2018-05-11T01:49:17.244Z,80.29
2018-05-11T01:50:17.226Z,80.26
2018-05-11T01:51:17.212Z,80.37
2018-05-11T01:52:17.249Z,80.36
2018-05-11T01:53:17.201Z,80.31
2018-05-11T01:54:17.206Z,80.36
2018-05-11T01:55:17.233Z,80.43
2018-05-11T01:56:17.210Z,80.15
2018-05-11T01:57:17.225Z,80.26
2018-05-11T01:58:17.235Z,80.86
2018-05-11T01:59:17.243Z,81.07
2018-05-11T02:00:17.215Z,80.77
2018-05-11T02:01:17.224Z,80.58
2018-05-11T02:02:17.201Z,80.31
2018-05-11T02:03:17.317Z,80.31
2018-05-11T02:04:17.277Z,80.64
2018-05-11T02:05:17.185Z,80.47
2018-05-11T02:06:17.281Z,80.61
2018-05-11T02:07:17.250Z,80.45
2018-05-11T02:08:17.263Z,80.54
2018-05-11T02:09:17.242Z,80.44
2018-05-11T02:10:17.263Z,80.82
2018-05-11T02:11:17.282Z,80.55
2018-05-11T02:12:17.213Z,80.81
2018-05-11T02:13:17.218Z,80.53
2018-05-11T02:14:17.232Z,80.46
2018-05-11T02:15:17.215Z,80.5
2018-05-11T02:16:17.214Z,80.35
2018-05-11T02:17:17.218Z,80.72
2018-05-11T02:18:17.229Z,80.74
2018-05-11T02:19:17.216Z,80.48
2018-05-11T02:20:17.210Z,80.37
2018-05-11T02:21:17.223Z,80.34
2018-05-11T02:22:17.228Z,80.38
2018-05-11T02:23:17.223Z,80.68
2018-05-11T02:24:17.232Z,80.52
2018-05-11T02:25:17.217Z,80.56
2018-05-11T02:26:17.236Z,80.74
2018-05-11T02:27:17.216Z,80.48
2018-05-11T02:28:17.270Z,80.8
2018-05-11T02:29:17.226Z,80.68
2018-05-11T02:30:17.355Z,80.87
2018-05-11T02:31:17.222Z,80.65
2018-05-11T02:32:17.234Z,80.71
2018-05-11T02:33:17.271Z,80.75
2018-05-11T02:34:17.273Z,81.12
2018-05-11T02:35:17.249Z,80.85
2018-05-11T02:36:17.257Z,81.29
2018-05-11T02:37:17.236Z,81.25
2018-05-11T02:38:17.226Z,81.28
2018-05-11T02:39:17.248Z,81.06
2018-05-11T02:40:17.245Z,80.76
2018-05-11T02:41:17.243Z,80.61
2018-05-11T02:42:17.261Z,81.05
2018-05-11T02:43:17.244Z,81.08
2018-05-11T02:44:17.226Z,81.11
2018-05-11T02:45:17.226Z,80.78
2018-05-11T02:46:17.260Z,80.6
2018-05-11T02:47:17.222Z,81.07
2018-05-11T02:48:17.246Z,80.82
2018-05-11T02:49:17.216Z,80.65
2018-05-11T02:50:17.317Z,80.54
2018-05-11T02:51:17.338Z,80.58
2018-05-11T02:52:17.267Z,80.63
2018-05-11T02:53:17.354Z,80.7
2018-05-11T02:54:17.221Z,80.48
2018-05-11T02:55:17.224Z,80.89
2018-05-11T02:56:17.248Z,80.73
2018-05-11T02:57:17.275Z,81.27
2018-05-11T02:58:17.273Z,80.91
2018-05-11T02:59:17.330Z,81.35
2018-05-11T03:00:17.263Z,81.32
2018-05-11T03:01:17.336Z,81.46
2018-05-11T03:02:17.220Z,81.49
2018-05-11T03:03:17.247Z,81.7
2018-05-11T03:04:17.301Z,81.68
2018-05-11T03:05:17.234Z,81.75
2018-05-11T03:06:17.290Z,81.7
2018-05-11T03:07:17.321Z,81.5
2018-05-11T03:08:17.339Z,81.37
2018-05-11T03:09:17.249Z,81.2
2018-05-11T03:10:17.263Z,81.35
2018-05-11T03:11:17.264Z,81.25
2018-05-11T03:12:17.298Z,81.74
2018-05-11T03:13:17.353Z,81.67
2018-05-11T03:14:17.263Z,81.46
2018-05-11T03:15:17.258Z,81.65
2018-05-11T03:16:17.240Z,81.65
2018-05-11T03:17:17.244Z,81.66
2018-05-11T03:18:17.216Z,81.38
2018-05-11T03:19:17.243Z,81.77
2018-05-11T03:20:17.269Z,81.36
2018-05-11T03:21:17.250Z,81.54
2018-05-11T03:22:17.247Z,81.24
2018-05-11T03:23:17.242Z,81.51
2018-05-11T03:24:17.245Z,81.49
2018-05-11T03:25:17.255Z,81.25
2018-05-11T03:26:17.414Z,81.18
2018-05-11T03:27:17.448Z,81.55
2018-05-11T03:28:17.265Z,81.69
2018-05-11T03:29:17.262Z,81.45
2018-05-11T03:30:17.272Z,81.63
2018-05-11T03:31:17.275Z,81.49
2018-05-11T03:32:17.270Z,81.61
2018-05-11T03:33:17.371Z,81.62
2018-05-11T03:34:17.268Z,81.41
2018-05-11T03:35:17.233Z,81.23
2018-05-11T03:36:17.274Z,81.06
2018-05-11T03:37:17.235Z,81.08
2018-05-11T03:38:17.245Z,81.06
2018-05-11T03:39:17.278Z,81.19
2018-05-11T03:40:17.249Z,81.15
2018-05-11T03:41:17.268Z,81.49
2018-05-11T03:42:17.321Z,81.16
2018-05-11T03:43:17.274Z,81.22
2018-05-11T03:44:17.274Z,81.12
2018-05-11T03:45:17.302Z,81.05
2018-05-11T03:46:17.275Z,81.04
2018-05-11T03:47:17.259Z,81.45
2018-05-11T03:48:17.266Z,81.35
2018-05-11T03:49:17.281Z,81.46
2018-05-11T03:50:17.237Z,81.37
2018-05-11T03:51:17.256Z,81.6
2018-05-11T03:52:17.282Z,81.64
2018-05-11T03:53:17.257Z,81.35
2018-05-11T03:54:17.257Z,81.16
2018-05-11T03:55:17.303Z,81.19
2018-05-11T03:56:17.251Z,81.33
2018-05-11T03:57:17.257Z,81.18
2018-05-11T03:58:17.267Z,81.09
2018-05-11T03:59:17.276Z,81.02
2018-05-11T04:00:17.248Z,81.01
2018-05-11T04:01:17.285Z,81.07
2018-05-11T04:02:17.286Z,80.92
2018-05-11T04:03:17.288Z,81.03
2018-05-11T04:04:17.276Z,81.14
2018-05-11T04:05:17.263Z,81.36
2018-05-11T04:06:17.278Z,81.08
2018-05-11T04:07:17.286Z,81.18
2018-05-11T04:08:17.241Z,81.34
2018-05-11T04:09:17.321Z,81.11
2018-05-11T04:10:17.290Z,81.58
2018-05-11T04:11:17.260Z,81.58
2018-05-11T04:12:17.262Z,81.25
2018-05-11T04:13:17.948Z,81.05
2018-05-11T04:14:17.334Z,81.1
2018-05-11T04:15:17.289Z,81.23
2018-05-11T04:16:17.308Z,80.86
2018-05-11T04:17:17.263Z,81.36
2018-05-11T04:18:17.379Z,81.23
2018-05-11T04:19:17.566Z,81.06
2018-05-11T04:20:17.304Z,81.49
2018-05-11T04:21:17.234Z,81.38
2018-05-11T04:22:17.264Z,81.1
2018-05-11T04:23:17.329Z,81.24
2018-05-11T04:24:17.324Z,81.36
2018-05-11T04:25:17.324Z,81.26
2018-05-11T04:26:17.322Z,81.17
2018-05-11T04:27:17.299Z,81.23
2018-05-11T04:28:17.263Z,81.28
2018-05-11T04:29:17.262Z,81.57
2018-05-11T04:30:17.654Z,81.34
2018-05-11T04:31:17.278Z,81.85
2018-05-11T04:32:17.316Z,81.85
2018-05-11T04:33:17.256Z,81.48
2018-05-11T04:34:17.311Z,81.48
2018-05-11T04:35:17.345Z,81.4
2018-05-11T04:36:17.247Z,81.92
2018-05-11T04:37:17.766Z,81.68
2018-05-11T04:38:17.260Z,81.55
2018-05-11T04:39:17.255Z,81.36
2018-05-11T04:40:17.302Z,81.57
2018-05-11T04:41:17.267Z,81.45
2018-05-11T04:42:17.300Z,81.86
2018-05-11T04:43:17.294Z,81.77
2018-05-11T04:44:17.290Z,81.51
2018-05-11T04:45:17.596Z,82.05
2018-05-11T04:46:17.276Z,82.07
2018-05-11T04:47:17.296Z,81.99
2018-05-11T04:48:17.281Z,81.73
2018-05-11T04:49:17.288Z,81.87
2018-05-11T04:50:17.664Z,81.87
2018-05-11T04:51:17.311Z,81.97
2018-05-11T04:52:17.339Z,81.87
2018-05-11T04:53:17.295Z,81.59
2018-05-11T04:54:17.411Z,81.41
2018-05-11T04:55:17.407Z,81.64
2018-05-11T04:56:17.261Z,81.79
2018-05-11T04:57:17.289Z,81.77
2018-05-11T04:58:17.289Z,81.68
2018-05-11T04:59:17.271Z,81.38
2018-05-11T05:00:17.308Z,81.41
2018-05-11T05:01:17.349Z,81.75
2018-05-11T05:02:17.531Z,81.37
2018-05-11T05:03:17.250Z,81.5
2018-05-11T05:04:17.293Z,81.16
2018-05-11T05:05:17.310Z,81.58
2018-05-11T05:06:17.280Z,81.43
2018-05-11T05:07:17.335Z,81.52
2018-05-11T05:08:17.295Z,81.67
2018-05-11T05:09:17.259Z,81.2
2018-05-11T05:10:17.294Z,81.18
2018-05-11T05:11:17.304Z,81.22
2018-05-11T05:12:17.526Z,81.53
2018-05-11T05:13:17.272Z,81.57
2018-05-11T05:14:17.448Z,81.07
2018-05-11T05:15:17.341Z,81.56
2018-05-11T05:16:17.328Z,81.24
2018-05-11T05:17:17.298Z,81.39
2018-05-11T05:18:17.341Z,81.12
2018-05-11T05:19:17.462Z,81.36
2018-05-11T05:20:17.389Z,81.82
2018-05-11T05:21:17.309Z,81.56
2018-05-11T05:22:17.325Z,81.77
2018-05-11T05:23:17.286Z,81.45
2018-05-11T05:24:17.343Z,81.44
2018-05-11T05:25:17.306Z,81.4
2018-05-11T05:26:17.273Z,81.25
2018-05-11T05:27:17.278Z,81.11
2018-05-11T05:28:17.307Z,81.43
2018-05-11T05:29:17.408Z,81.65
2018-05-11T05:30:17.322Z,81.71
2018-05-11T05:31:17.289Z,81.18
2018-05-11T05:32:17.319Z,81.14
2018-05-11T05:33:17.382Z,81.45
2018-05-11T05:34:17.284Z,81.45
2018-05-11T05:35:17.288Z,81.08
2018-05-11T05:36:17.328Z,81.05
2018-05-11T05:37:17.347Z,81.42
2018-05-11T05:38:17.291Z,81.68
2018-05-11T05:39:18.200Z,81.5
2018-05-11T05:40:17.296Z,81.95
2018-05-11T05:41:17.307Z,81.89
2018-05-11T05:42:17.627Z,81.94
2018-05-11T05:43:17.424Z,81.95
2018-05-11T05:44:17.347Z,81.77
2018-05-11T05:45:17.323Z,82.02
2018-05-11T05:46:17.346Z,81.82
2018-05-11T05:47:17.362Z,81.95
2018-05-11T05:48:17.334Z,82.16
2018-05-11T05:49:17.320Z,81.64
2018-05-11T05:50:17.324Z,81.71
2018-05-11T05:51:17.386Z,82.13
2018-05-11T05:52:17.317Z,82.2
2018-05-11T05:53:17.346Z,81.78
2018-05-11T05:54:17.362Z,81.96
2018-05-11T05:55:17.393Z,81.73
2018-05-11T05:56:17.315Z,81.56
2018-05-11T05:57:17.300Z,81.51
2018-05-11T05:58:17.307Z,82.1
2018-05-11T05:59:17.336Z,81.55
2018-05-11T06:00:17.373Z,81.93
2018-05-11T06:01:17.333Z,81.76
2018-05-11T06:02:17.347Z,81.81
2018-05-11T06:03:17.326Z,81.6
2018-05-11T06:04:17.316Z,81.41
2018-05-11T06:05:17.285Z,81.49
2018-05-11T06:06:17.382Z,81.43
2018-05-11T06:07:17.682Z,81.37
2018-05-11T06:08:17.666Z,81.68
2018-05-11T06:09:17.294Z,81.51
2018-05-11T06:10:17.317Z,81.46
2018-05-11T06:11:17.544Z,81.95
2018-05-11T06:12:17.340Z,81.92
2018-05-11T06:13:17.310Z,81.45
2018-05-11T06:14:17.346Z,81.57
2018-05-11T06:15:17.308Z,81.69
2018-05-11T06:16:17.322Z,81.45
2018-05-11T06:17:17.457Z,81.42
2018-05-11T06:18:17.322Z,81.62
2018-05-11T06:19:17.353Z,81.78
2018-05-11T06:20:17.320Z,82.12
2018-05-11T06:21:17.336Z,82.25
2018-05-11T06:22:17.339Z,81.96
2018-05-11T06:23:17.361Z,81.81
2018-05-11T06:24:17.375Z,81.45
2018-05-11T06:25:17.357Z,81.52
2018-05-11T06:26:17.318Z,81.92
2018-05-11T06:27:17.337Z,81.15
2018-05-11T06:28:18.198Z,81.03
2018-05-11T06:29:17.422Z,81.03
2018-05-11T06:30:17.325Z,81.13
2018-05-11T06:31:17.341Z,81.12
2018-05-11T06:32:17.414Z,81.04
2018-05-11T06:33:17.322Z,80.93
2018-05-11T06:34:17.321Z,80.84
2018-05-11T06:35:17.352Z,80.84
2018-05-11T06:36:17.335Z,80.11
2018-05-11T06:37:17.361Z,80.08
2018-05-11T06:38:17.339Z,79.91
2018-05-11T06:39:17.387Z,80.06
2018-05-11T06:40:17.326Z,78.71
2018-05-11T06:41:17.326Z,79.54
2018-05-11T06:42:17.364Z,79.42
2018-05-11T06:43:17.363Z,78.95
2018-05-11T06:44:17.328Z,78.55
2018-05-11T06:45:17.329Z,78.71
2018-05-11T06:46:17.328Z,78.68
2018-05-11T06:47:17.764Z,78.83
2018-05-11T06:48:17.333Z,79.37
2018-05-11T06:49:17.346Z,79.98
2018-05-11T06:50:17.508Z,80.37
2018-05-11T06:51:17.340Z,80.32
2018-05-11T06:52:17.397Z,80.07
2018-05-11T06:53:17.350Z,80.18
2018-05-11T06:54:17.361Z,79.74
2018-05-11T06:55:17.372Z,78.79
2018-05-11T06:56:17.331Z,79.28
2018-05-11T06:57:17.345Z,79.16
2018-05-11T06:58:17.313Z,78.92
2018-05-11T06:59:17.370Z,78.71
2018-05-11T07:00:17.498Z,79.04
2018-05-11T07:01:18.228Z,79.13
2018-05-11T07:02:17.348Z,79.18
2018-05-11T07:03:17.491Z,79.2
2018-05-11T07:04:17.398Z,79.39
2018-05-11T07:05:17.339Z,79.32
2018-05-11T07:06:17.375Z,79.53
2018-05-11T07:07:17.498Z,79.66
2018-05-11T07:08:17.326Z,79.71
2018-05-11T07:09:17.352Z,79.29
2018-05-11T07:10:17.332Z,79.26
2018-05-11T07:11:17.315Z,78.05
2018-05-11T07:12:17.343Z,78.78
2018-05-11T07:13:17.361Z,79.23
2018-05-11T07:14:17.337Z,78.9
2018-05-11T07:15:17.500Z,78.69
2018-05-11T07:16:17.343Z,78.55
2018-05-11T07:17:17.368Z,79
2018-05-11T07:18:17.365Z,78.54
2018-05-11T07:19:18.959Z,78.64
2018-05-11T07:20:17.330Z,78.52
2018-05-11T07:21:17.320Z,78.9
2018-05-11T07:22:17.344Z,78.9
2018-05-11T07:23:17.354Z,78.36
2018-05-11T07:24:17.344Z,78.33
2018-05-11T07:25:17.349Z,79.12
2018-05-11T07:26:17.628Z,79.17
2018-05-11T07:27:17.786Z,78.84
2018-05-11T07:28:17.410Z,78.67
2018-05-11T07:29:17.484Z,78.54
2018-05-11T07:30:17.344Z,78.46
2018-05-11T07:31:17.328Z,78.63
2018-05-11T07:32:17.359Z,77.91
2018-05-11T07:33:17.372Z,78.3
2018-05-11T07:34:17.347Z,78.57
2018-05-11T07:35:17.328Z,78.88
2018-05-11T07:36:17.371Z,78.89
2018-05-11T07:37:17.371Z,79.53
2018-05-11T07:38:17.366Z,79.42
2018-05-11T07:39:17.436Z,79.44
2018-05-11T07:40:17.371Z,79.34
2018-05-11T07:41:17.384Z,79.18
2018-05-11T07:42:17.374Z,78.77
2018-05-11T07:43:17.899Z,78.7
2018-05-11T07:44:17.392Z,77.83
2018-05-11T07:45:17.353Z,77.6
2018-05-11T07:46:17.376Z,78.19
2018-05-11T07:47:17.425Z,78.22
2018-05-11T07:48:17.419Z,78.61
2018-05-11T07:49:17.443Z,79.21
2018-05-11T07:50:17.368Z,78.21
2018-05-11T07:51:17.418Z,78.44
2018-05-11T07:52:17.367Z,77.48
2018-05-11T07:53:17.467Z,77.68
2018-05-11T07:54:17.427Z,77.65
2018-05-11T07:55:17.411Z,77.36
2018-05-11T07:56:17.411Z,77.03
2018-05-11T07:57:17.529Z,77.57
2018-05-11T07:58:17.385Z,76.1
2018-05-11T07:59:17.391Z,75.63
2018-05-11T08:00:17.417Z,75.27
2018-05-11T08:01:17.417Z,76.34
2018-05-11T08:02:17.452Z,76.03
2018-05-11T08:03:17.377Z,76.71
2018-05-11T08:04:17.443Z,76.5
2018-05-11T08:05:17.518Z,76.79
2018-05-11T08:06:17.379Z,77.38
2018-05-11T08:07:17.756Z,76.93
2018-05-11T08:08:17.431Z,76.5
2018-05-11T08:09:17.500Z,76.39
2018-05-11T08:10:17.372Z,75.81
2018-05-11T08:11:17.499Z,76.13
2018-05-11T08:12:17.429Z,75.16
2018-05-11T08:13:17.407Z,75.83
2018-05-11T08:14:17.853Z,76.34
2018-05-11T08:15:17.507Z,76.54
2018-05-11T08:16:17.410Z,76.1
2018-05-11T08:17:17.394Z,75.56
2018-05-11T08:18:17.388Z,76.45
2018-05-11T08:19:17.402Z,75.65
2018-05-11T08:20:17.398Z,75.24
2018-05-11T08:21:17.722Z,74.56
2018-05-11T08:22:17.395Z,74.9
2018-05-11T08:23:17.426Z,74.4
2018-05-11T08:24:17.417Z,74.83
2018-05-11T08:25:17.407Z,75.31
2018-05-11T08:26:17.439Z,75.17
2018-05-11T08:27:17.384Z,74.69
2018-05-11T08:28:17.507Z,73.39
2018-05-11T08:29:17.427Z,73.73
2018-05-11T08:30:17.394Z,74.2
2018-05-11T08:31:17.412Z,74.81
2018-05-11T08:32:17.407Z,74.55
2018-05-11T08:33:17.447Z,74.57
2018-05-11T08:34:17.393Z,75.17
2018-05-11T08:35:17.442Z,74.25
2018-05-11T08:36:17.428Z,74.5
2018-05-11T08:37:17.403Z,73.95
2018-05-11T08:38:17.610Z,74.49
2018-05-11T08:39:17.455Z,74.88
2018-05-11T08:40:17.429Z,74.61
2018-05-11T08:41:17.424Z,74.8
2018-05-11T08:42:17.536Z,74.26
2018-05-11T08:43:17.436Z,74.1
2018-05-11T08:44:17.438Z,74.55
2018-05-11T08:45:17.417Z,74.6
2018-05-11T08:46:17.825Z,74.65
2018-05-11T08:47:17.396Z,74.25
2018-05-11T08:48:18.020Z,72.78
2018-05-11T08:49:18.032Z,72.46
2018-05-11T08:50:17.417Z,71.67
2018-05-11T08:51:17.461Z,69.91
2018-05-11T08:52:17.390Z,70.81
2018-05-11T08:53:17.406Z,69.83
2018-05-11T08:54:17.584Z,69.43
2018-05-11T08:55:17.431Z,70.63
2018-05-11T08:56:17.430Z,70.01
2018-05-11T08:57:17.828Z,68.98
2018-05-11T08:58:17.413Z,67.74
2018-05-11T08:59:17.409Z,66.58
2018-05-11T09:00:17.468Z,67.04
2018-05-11T09:01:17.422Z,67.5
2018-05-11T09:02:17.439Z,66.76
2018-05-11T09:03:17.409Z,68.18
2018-05-11T09:04:17.415Z,69.55
2018-05-11T09:05:17.448Z,69.11
2018-05-11T09:06:17.407Z,69.27
2018-05-11T09:07:17.435Z,69.13
2018-05-11T09:08:17.684Z,67.6
2018-05-11T09:09:17.459Z,68.68
2018-05-11T09:10:17.404Z,67.77
2018-05-11T09:11:17.410Z,68.47
2018-05-11T09:12:17.417Z,68.15
2018-05-11T09:13:17.420Z,68.35
2018-05-11T09:14:17.418Z,68.79
2018-05-11T09:15:17.443Z,68.6
2018-05-11T09:16:17.416Z,67.83
2018-05-11T09:17:17.445Z,68.65
2018-05-11T09:18:17.474Z,68.3
2018-05-11T09:19:17.408Z,69.5
2018-05-11T09:20:17.397Z,68.48
2018-05-11T09:21:17.438Z,69.19
2018-05-11T09:22:17.412Z,67.88
2018-05-11T09:23:17.440Z,68.33
2018-05-11T09:24:17.459Z,67.75
2018-05-11T09:25:17.463Z,68.3
2018-05-11T09:26:17.464Z,68.18
2018-05-11T09:27:17.457Z,67.49
2018-05-11T09:28:17.480Z,65.92
2018-05-11T09:29:17.479Z,66.04
2018-05-11T09:30:17.447Z,66.38
2018-05-11T09:31:18.499Z,66.8
2018-05-11T09:32:17.423Z,66.08
2018-05-11T09:33:17.425Z,66.66
2018-05-11T09:34:17.423Z,65.48
2018-05-11T09:35:17.429Z,65.22
2018-05-11T09:36:17.448Z,62.58
2018-05-11T09:37:17.439Z,63.16
2018-05-11T09:38:17.421Z,63.36
2018-05-11T09:39:17.451Z,63.83
2018-05-11T09:40:17.440Z,63.32
2018-05-11T09:41:17.455Z,63.36
2018-05-11T09:42:17.457Z,64.7
2018-05-11T09:43:17.424Z,64.58
2018-05-11T09:44:17.438Z,64.93
2018-05-11T09:45:17.813Z,65.74
2018-05-11T09:46:17.522Z,65.83
2018-05-11T09:47:17.519Z,64.55
2018-05-11T09:48:17.420Z,63.02
2018-05-11T09:49:17.427Z,61.67
2018-05-11T09:50:17.419Z,62.95
2018-05-11T09:51:17.439Z,64.97
2018-05-11T09:52:17.751Z,63.95
2018-05-11T09:53:17.449Z,65.45
2018-05-11T09:54:17.466Z,65.41
2018-05-11T09:55:17.436Z,63.99
2018-05-11T09:56:17.447Z,64.09
2018-05-11T09:57:17.602Z,62.61
2018-05-11T09:58:17.530Z,62.31
2018-05-11T09:59:17.456Z,63.92
2018-05-11T10:00:17.441Z,63.82
2018-05-11T10:01:17.452Z,64.17
2018-05-11T10:02:17.483Z,62.53
2018-05-11T10:03:17.421Z,62.45
2018-05-11T10:04:17.448Z,63.29
2018-05-11T10:05:17.477Z,64.93
2018-05-11T10:06:17.449Z,63.57
2018-05-11T10:07:17.442Z,64
2018-05-11T10:08:17.451Z,64.14
2018-05-11T10:09:17.434Z,62.06
2018-05-11T10:10:17.445Z,62.63
2018-05-11T10:11:17.442Z,63.95
2018-05-11T10:12:17.522Z,64.38
2018-05-11T10:13:17.456Z,63.62
2018-05-11T10:14:17.428Z,63.31
2018-05-11T10:15:17.435Z,61.22
2018-05-11T10:16:17.425Z,63.41
2018-05-11T10:17:17.457Z,63.61
2018-05-11T10:18:17.437Z,63.97
2018-05-11T10:19:17.472Z,61.72
2018-05-11T10:20:17.579Z,61.61
2018-05-11T10:21:17.422Z,62
2018-05-11T10:22:17.424Z,61.59
2018-05-11T10:23:17.431Z,60.77
2018-05-11T10:24:17.464Z,62.14
2018-05-11T10:25:17.453Z,60.06
2018-05-11T10:26:17.497Z,60.13
2018-05-11T10:27:17.451Z,60.86
2018-05-11T10:28:17.470Z,59.82
2018-05-11T10:29:17.448Z,61.1
2018-05-11T10:30:17.444Z,60.07
2018-05-11T10:31:17.446Z,60.13
2018-05-11T10:32:17.449Z,61.33
2018-05-11T10:33:17.459Z,60.83
2018-05-11T10:34:17.424Z,61.15
2018-05-11T10:35:17.555Z,60.52
2018-05-11T10:36:17.471Z,59.49
2018-05-11T10:37:17.456Z,59.74
2018-05-11T10:38:17.440Z,57.95
2018-05-11T10:39:17.459Z,57.88
2018-05-11T10:40:17.507Z,57.82
2018-05-11T10:41:17.452Z,59.07
2018-05-11T10:42:17.438Z,59.6
2018-05-11T10:43:17.467Z,59.62
2018-05-11T10:44:17.452Z,60.54
2018-05-11T10:45:17.533Z,60.64
2018-05-11T10:46:17.746Z,60.17
2018-05-11T10:47:17.435Z,60.83
2018-05-11T10:48:17.477Z,60.37
2018-05-11T10:49:17.437Z,59.52
2018-05-11T10:50:17.519Z,60.07
2018-05-11T10:51:17.446Z,59.3
2018-05-11T10:52:17.532Z,60.92
2018-05-11T10:53:17.445Z,61.08
2018-05-11T10:54:17.510Z,60.75
2018-05-11T10:55:17.453Z,61.21
2018-05-11T10:56:17.445Z,60.23
2018-05-11T10:57:17.555Z,59.51
2018-05-11T10:58:17.507Z,59.52
2018-05-11T10:59:17.765Z,60.2
2018-05-11T11:00:17.495Z,60.46
2018-05-11T11:01:17.529Z,60.31
2018-05-11T11:02:17.765Z,61.58
2018-05-11T11:03:17.523Z,58.41
2018-05-11T11:04:17.490Z,58.73
2018-05-11T11:05:17.491Z,59.82
2018-05-11T11:06:17.557Z,59.33
2018-05-11T11:07:17.592Z,59.28
2018-05-11T11:08:17.563Z,59.44
2018-05-11T11:09:17.454Z,56.87
2018-05-11T11:10:17.490Z,55.47
2018-05-11T11:11:17.466Z,56.72
2018-05-11T11:12:17.489Z,55.24
2018-05-11T11:13:17.475Z,54.67
2018-05-11T11:14:17.744Z,56.4
2018-05-11T11:15:17.474Z,55.18
2018-05-11T11:16:17.518Z,55.67
2018-05-11T11:17:17.505Z,55.29
2018-05-11T11:18:17.576Z,55.38
2018-05-11T11:19:17.553Z,55.05
2018-05-11T11:20:17.488Z,55.74
2018-05-11T11:21:17.638Z,54.89
2018-05-11T11:22:17.497Z,55.06
2018-05-11T11:23:17.445Z,54.77
2018-05-11T11:24:17.469Z,54.81
2018-05-11T11:25:17.573Z,54.12
2018-05-11T11:26:18.695Z,54.11
2018-05-11T11:27:17.684Z,53.64
2018-05-11T11:28:17.583Z,52.86
2018-05-11T11:29:17.716Z,51.67
2018-05-11T11:30:17.520Z,53.55
2018-05-11T11:31:17.473Z,54.32
2018-05-11T11:32:17.618Z,53.38
2018-05-11T11:33:17.639Z,52.98
2018-05-11T11:34:20.809Z,52.71
2018-05-11T11:35:17.648Z,52.4
2018-05-11T11:36:17.470Z,51.57
2018-05-11T11:37:17.647Z,52.64
2018-05-11T11:38:17.640Z,51.84
2018-05-11T11:39:17.663Z,51.91
2018-05-11T11:40:17.699Z,52.75
2018-05-11T11:41:17.651Z,53.39
2018-05-11T11:42:17.966Z,52.53
2018-05-11T11:43:17.492Z,53.14
2018-05-11T11:44:17.487Z,53.03
2018-05-11T11:45:17.698Z,48.41
2018-05-11T11:46:17.613Z,49.82
2018-05-11T11:47:17.642Z,50.43
2018-05-11T11:48:17.656Z,50.38
2018-05-11T11:49:17.627Z,49.93
2018-05-11T11:50:17.642Z,50.5
2018-05-11T11:51:17.648Z,50.41
2018-05-11T11:52:17.494Z,49.98
2018-05-11T11:53:17.654Z,50.68
2018-05-11T11:54:17.677Z,50.19
2018-05-11T11:55:17.573Z,50.06
2018-05-11T11:56:17.767Z,49.1
2018-05-11T11:57:17.597Z,50.53
2018-05-11T11:58:17.706Z,49.98
2018-05-11T11:59:17.706Z,49.81
2018-05-11T12:00:17.614Z,50.26
2018-05-11T12:01:17.642Z,50.47
2018-05-11T12:02:17.500Z,50.34
2018-05-11T12:03:17.528Z,50.09
2018-05-11T12:04:17.728Z,49.66
2018-05-11T12:05:17.659Z,50.52
2018-05-11T12:06:18.694Z,48.55
2018-05-11T12:07:19.716Z,48.2
2018-05-11T12:08:17.571Z,49.4
2018-05-11T12:09:17.653Z,49.84
2018-05-11T12:10:17.557Z,49.99
2018-05-11T12:11:17.488Z,49.24
2018-05-11T12:12:17.742Z,50.47
2018-05-11T12:13:17.489Z,49.11
2018-05-11T12:14:17.705Z,48.82
2018-05-11T12:15:17.721Z,48.15
2018-05-11T12:16:17.596Z,48.99
2018-05-11T12:17:17.772Z,49.52
2018-05-11T12:18:17.663Z,48.02
2018-05-11T12:19:17.665Z,48.8
2018-05-11T12:20:17.747Z,46.45
2018-05-11T12:21:17.641Z,45.83
2018-05-11T12:22:17.511Z,46.08
2018-05-11T12:23:17.768Z,46.05
2018-05-11T12:24:17.757Z,45.05
2018-05-11T12:25:17.676Z,44.83
2018-05-11T12:26:17.949Z,44.26
2018-05-11T12:27:17.586Z,44.24
2018-05-11T12:28:17.694Z,45.78
2018-05-11T12:29:18.618Z,45.87
2018-05-11T12:30:17.609Z,46.6
2018-05-11T12:31:17.540Z,46.31
2018-05-11T12:32:17.527Z,44.1
2018-05-11T12:33:17.681Z,44.8
2018-05-11T12:34:17.535Z,45.55
2018-05-11T12:35:17.545Z,46.54
2018-05-11T12:36:17.531Z,44.82
2018-05-11T12:37:17.512Z,45.06
2018-05-11T12:38:17.528Z,44.4
2018-05-11T12:39:17.770Z,45.35
2018-05-11T12:40:17.532Z,45.77
2018-05-11T12:41:17.546Z,45.62
2018-05-11T12:42:17.537Z,45.87
2018-05-11T12:43:17.554Z,45.81
2018-05-11T12:44:17.564Z,46.61
2018-05-11T12:45:17.523Z,46.88
2018-05-11T12:46:17.515Z,46.36
2018-05-11T12:47:17.529Z,46.38
2018-05-11T12:48:17.533Z,47.09
2018-05-11T12:49:17.569Z,45.85
2018-05-11T12:50:17.588Z,45.54
2018-05-11T12:51:17.535Z,46
2018-05-11T12:52:17.545Z,45.69
2018-05-11T12:53:17.553Z,44.75
2018-05-11T12:54:17.684Z,44.63
2018-05-11T12:55:17.622Z,44.84